createdAt,value
2019-05-30T00:00:17.445Z,15.50
2019-05-30T00:02:40.321Z,15.50
2019-05-30T00:05:08.601Z,15.50
2019-05-30T00:07:36.803Z,15.50
2019-05-30T00:10:08.113Z,15.50
2019-05-30T00:12:36.581Z,15.50
2019-05-30T00:15:08.081Z,15.50
2019-05-30T00:17:36.621Z,15.50
2019-05-30T00:20:05.852Z,15.60
2019-05-30T00:22:34.313Z,15.60
2019-05-30T00:25:02.532Z,15.50
2019-05-30T00:27:30.876Z,15.50
2019-05-30T00:29:59.302Z,15.50
2019-05-30T00:32:27.654Z,15.50
2019-05-30T00:34:55.878Z,15.50
2019-05-30T00:37:24.089Z,15.50
2019-05-30T00:39:52.280Z,15.50
2019-05-30T00:42:20.480Z,15.50
2019-05-30T00:44:48.929Z,15.40
2019-05-30T00:47:17.111Z,15.50
2019-05-30T00:49:45.312Z,15.50
2019-05-30T00:52:13.508Z,15.40
2019-05-30T00:54:41.708Z,15.40
2019-05-30T00:57:09.904Z,15.40
2019-05-30T00:59:38.109Z,15.40
2019-05-30T01:02:06.992Z,15.40
2019-05-30T01:04:35.294Z,15.40
2019-05-30T01:07:03.626Z,15.40
2019-05-30T01:09:32.159Z,15.40
2019-05-30T01:12:01.013Z,15.40
2019-05-30T01:14:29.377Z,15.40
2019-05-30T01:16:59.011Z,15.40
2019-05-30T01:19:27.281Z,15.40
2019-05-30T01:21:55.484Z,15.30
2019-05-30T01:24:23.692Z,15.30
2019-05-30T01:26:51.888Z,15.30
2019-05-30T01:29:20.096Z,15.30
2019-05-30T01:31:48.289Z,15.20
2019-05-30T01:34:16.585Z,15.30
2019-05-30T01:36:44.779Z,15.20
2019-05-30T01:39:12.987Z,15.20
2019-05-30T01:41:41.184Z,15.20
2019-05-30T01:44:09.384Z,15.20
2019-05-30T01:46:37.845Z,15.20
2019-05-30T01:49:06.779Z,15.10
2019-05-30T01:51:35.426Z,15.10
2019-05-30T01:54:04.587Z,15.10
2019-05-30T01:56:32.900Z,15.00
2019-05-30T01:59:01.116Z,15.00
2019-05-30T02:01:29.305Z,15.00
2019-05-30T02:03:58.979Z,14.90
2019-05-30T02:06:27.402Z,14.90
2019-05-30T02:08:55.938Z,14.80
2019-05-30T02:11:24.188Z,14.80
2019-05-30T02:13:52.395Z,14.80
2019-05-30T02:16:20.592Z,14.70
2019-05-30T02:18:48.823Z,14.70
2019-05-30T02:21:17.024Z,14.70
2019-05-30T02:23:45.563Z,14.60
2019-05-30T02:26:13.856Z,14.60
2019-05-30T02:28:42.316Z,14.50
2019-05-30T02:31:12.203Z,14.50
2019-05-30T02:33:40.446Z,14.50
2019-05-30T02:36:11.014Z,14.40
2019-05-30T02:38:38.806Z,14.30
2019-05-30T02:41:08.140Z,14.30
2019-05-30T02:43:37.013Z,14.30
2019-05-30T02:46:05.996Z,14.20
2019-05-30T02:48:35.149Z,14.20
2019-05-30T02:51:03.453Z,14.10
2019-05-30T02:53:31.729Z,14.00
2019-05-30T02:56:01.398Z,14.00
2019-05-30T02:58:29.724Z,13.90
2019-05-30T03:00:57.933Z,14.00
2019-05-30T03:03:26.130Z,13.90
2019-05-30T03:05:54.647Z,13.80
2019-05-30T03:08:22.857Z,13.80
2019-05-30T03:10:51.321Z,13.80
2019-05-30T03:13:19.883Z,13.80
2019-05-30T03:15:48.477Z,13.80
2019-05-30T03:18:16.708Z,13.70
2019-05-30T03:20:45.245Z,13.70
2019-05-30T03:23:14.730Z,13.70
2019-05-30T03:25:43.730Z,13.60
2019-05-30T03:28:13.623Z,13.60
2019-05-30T03:30:42.505Z,13.50
2019-05-30T03:33:31.754Z,13.50
2019-05-30T03:35:43.571Z,13.50
2019-05-30T03:38:13.529Z,13.40
2019-05-30T03:40:41.382Z,13.40
2019-05-30T03:43:11.652Z,13.40
2019-05-30T03:45:39.510Z,13.30
2019-05-30T03:48:11.389Z,13.30
2019-05-30T03:50:39.344Z,13.30
2019-05-30T03:53:09.895Z,13.30
2019-05-30T03:55:37.842Z,13.20
2019-05-30T03:58:16.447Z,13.20
2019-05-30T04:00:55.305Z,13.20
2019-05-30T04:03:50.591Z,13.20
2019-05-30T04:06:34.203Z,13.20
2019-05-30T04:09:07.378Z,13.20
2019-05-30T04:11:46.292Z,13.20
2019-05-30T04:14:19.193Z,13.20
2019-05-30T04:16:47.131Z,13.10
2019-05-30T04:19:17.151Z,13.10
2019-05-30T04:21:45.772Z,13.10
2019-05-30T04:24:14.594Z,13.10
2019-05-30T04:26:44.132Z,13.10
2019-05-30T04:29:14.347Z,13.10
2019-05-30T04:31:42.263Z,13.10
2019-05-30T04:34:12.448Z,13.10
2019-05-30T04:36:40.391Z,13.10
2019-05-30T04:39:08.968Z,13.20
2019-05-30T04:41:37.663Z,13.20
2019-05-30T04:44:06.295Z,13.20
2019-05-30T04:46:34.850Z,13.20
2019-05-30T04:49:03.046Z,13.30
2019-05-30T04:51:31.252Z,13.30
2019-05-30T04:53:59.779Z,13.30
2019-05-30T04:56:28.258Z,13.30
2019-05-30T04:58:56.740Z,13.40
2019-05-30T05:01:24.937Z,13.40
2019-05-30T05:03:53.151Z,13.50
2019-05-30T05:06:21.944Z,13.40
2019-05-30T05:08:50.435Z,13.40
2019-05-30T05:11:21.501Z,13.40
2019-05-30T05:13:49.160Z,13.40
2019-05-30T05:16:29.436Z,13.50
2019-05-30T05:18:47.289Z,13.50
2019-05-30T05:21:16.620Z,13.60
2019-05-30T05:23:45.388Z,13.60
2019-05-30T05:26:13.623Z,13.60
2019-05-30T05:28:42.103Z,13.70
2019-05-30T05:31:10.300Z,13.70
2019-05-30T05:33:38.509Z,13.70
2019-05-30T05:36:06.721Z,13.80
2019-05-30T05:38:34.930Z,13.80
2019-05-30T05:41:03.124Z,13.90
2019-05-30T05:43:31.330Z,13.90
2019-05-30T05:45:59.825Z,13.90
2019-05-30T05:48:28.828Z,13.90
2019-05-30T05:50:57.101Z,13.90
2019-05-30T05:53:25.544Z,14.00
2019-05-30T05:55:53.756Z,14.00
2019-05-30T05:58:23.707Z,14.10
2019-05-30T06:00:51.893Z,14.10
2019-05-30T06:03:20.386Z,14.20
2019-05-30T06:05:53.045Z,14.20
2019-05-30T06:08:19.479Z,14.20
2019-05-30T06:10:47.813Z,14.30
2019-05-30T06:13:16.613Z,14.30
2019-05-30T06:15:44.924Z,14.30
2019-05-30T06:18:13.124Z,14.40
2019-05-30T06:20:41.348Z,14.40
2019-05-30T06:23:09.791Z,14.50
2019-05-30T06:25:38.002Z,14.60
2019-05-30T06:28:06.220Z,14.60
2019-05-30T06:30:34.432Z,14.70
2019-05-30T06:33:02.905Z,14.70
2019-05-30T06:35:31.117Z,14.80
2019-05-30T06:37:59.774Z,14.80
2019-05-30T06:40:30.878Z,14.80
2019-05-30T06:42:57.983Z,14.90
2019-05-30T06:45:26.837Z,14.90
2019-05-30T06:47:55.188Z,15.00
2019-05-30T06:50:24.622Z,15.10
2019-05-30T06:52:53.024Z,15.10
2019-05-30T06:55:21.236Z,15.20
2019-05-30T06:57:49.431Z,15.30
2019-05-30T07:00:17.661Z,15.40
2019-05-30T07:02:45.922Z,15.50
2019-05-30T07:05:15.279Z,15.60
2019-05-30T07:07:44.009Z,15.60
2019-05-30T07:10:12.506Z,15.70
2019-05-30T07:12:40.791Z,15.60
2019-05-30T07:15:11.968Z,15.70
2019-05-30T07:17:40.170Z,15.70
2019-05-30T07:20:08.489Z,15.70
2019-05-30T07:22:36.800Z,15.70
2019-05-30T07:25:07.207Z,15.80
2019-05-30T07:27:35.438Z,15.80
2019-05-30T07:30:05.348Z,15.90
2019-05-30T07:32:34.142Z,16.00
2019-05-30T07:35:06.848Z,16.10
2019-05-30T07:37:32.410Z,16.20
2019-05-30T07:40:00.626Z,16.30
2019-05-30T07:42:28.856Z,16.50
2019-05-30T07:44:57.357Z,16.60
2019-05-30T07:47:25.980Z,16.70
2019-05-30T07:49:54.641Z,16.80
2019-05-30T07:52:22.843Z,16.80
2019-05-30T07:54:51.275Z,16.90
2019-05-30T07:57:19.573Z,17.00
2019-05-30T07:59:48.038Z,17.10
2019-05-30T08:02:16.237Z,17.10
2019-05-30T08:04:46.911Z,17.10
2019-05-30T08:07:14.372Z,17.20
2019-05-30T08:09:42.570Z,17.20
2019-05-30T08:12:10.802Z,17.30
2019-05-30T08:14:38.968Z,17.40
2019-05-30T08:17:07.210Z,17.50
2019-05-30T08:19:35.992Z,17.50
2019-05-30T08:22:04.280Z,17.50
2019-05-30T08:24:32.477Z,17.60
2019-05-30T08:27:00.714Z,17.60
2019-05-30T08:29:29.932Z,17.70
2019-05-30T08:31:58.300Z,17.80
2019-05-30T08:34:26.502Z,17.80
2019-05-30T08:36:54.756Z,17.80
2019-05-30T08:39:22.957Z,17.80
2019-05-30T08:42:10.601Z,17.90
2019-05-30T08:44:40.050Z,17.90
2019-05-30T08:47:08.552Z,17.80
2019-05-30T08:49:36.762Z,17.90
2019-05-30T08:52:04.972Z,17.90
2019-05-30T08:54:34.291Z,18.00
2019-05-30T08:57:02.676Z,18.00
2019-05-30T08:59:30.876Z,18.00
2019-05-30T09:01:59.102Z,18.10
2019-05-30T09:04:27.302Z,18.20
2019-05-30T09:06:55.585Z,18.20
2019-05-30T09:09:23.806Z,18.20
2019-05-30T09:11:52.008Z,18.20
2019-05-30T09:14:20.193Z,18.30
2019-05-30T09:16:49.593Z,18.40
2019-05-30T09:19:18.477Z,18.40
2019-05-30T09:21:47.471Z,18.40
2019-05-30T09:24:15.742Z,18.60
2019-05-30T09:26:47.155Z,18.70
2019-05-30T09:29:13.976Z,18.80
2019-05-30T09:31:42.857Z,18.90
2019-05-30T09:34:12.150Z,18.90
2019-05-30T09:36:41.012Z,18.90
2019-05-30T09:39:09.351Z,19.00
2019-05-30T09:41:39.197Z,19.00
2019-05-30T09:44:08.193Z,19.10
2019-05-30T09:46:36.540Z,19.10
2019-05-30T09:49:05.586Z,19.20
2019-05-30T09:51:33.811Z,19.30
2019-05-30T09:54:02.032Z,19.30
2019-05-30T09:56:30.237Z,19.30
2019-05-30T09:58:58.447Z,19.40
2019-05-30T10:01:26.670Z,19.40
2019-05-30T10:03:54.870Z,19.40
2019-05-30T10:06:29.397Z,19.50
2019-05-30T10:08:53.376Z,19.50
2019-05-30T10:11:21.585Z,19.50
2019-05-30T10:13:51.125Z,19.50
2019-05-30T10:16:19.463Z,19.50
2019-05-30T10:18:49.010Z,19.60
2019-05-30T10:21:17.768Z,19.50
2019-05-30T10:23:47.580Z,19.60
2019-05-30T10:26:16.161Z,19.70
2019-05-30T10:28:45.001Z,19.80
2019-05-30T10:31:14.270Z,19.70
2019-05-30T10:33:42.477Z,19.80
2019-05-30T10:36:14.630Z,19.90
2019-05-30T10:38:40.905Z,19.90
2019-05-30T10:41:09.161Z,19.90
2019-05-30T10:43:37.756Z,20.00
2019-05-30T10:46:06.024Z,19.90
2019-05-30T10:48:36.176Z,19.90
2019-05-30T10:51:04.426Z,20.10
2019-05-30T10:53:32.857Z,20.20
2019-05-30T10:56:01.085Z,20.20
2019-05-30T10:58:29.372Z,20.20
2019-05-30T11:00:58.134Z,20.30
2019-05-30T11:03:27.313Z,20.30
2019-05-30T11:05:58.792Z,20.40
2019-05-30T11:08:26.976Z,20.50
2019-05-30T11:10:55.239Z,20.60
2019-05-30T11:13:23.496Z,20.60
2019-05-30T11:15:51.784Z,20.50
2019-05-30T11:18:20.023Z,20.50
2019-05-30T11:20:48.352Z,20.50
2019-05-30T11:23:16.630Z,20.50
2019-05-30T11:25:44.822Z,20.50
2019-05-30T11:28:13.065Z,20.50
2019-05-30T11:30:41.276Z,20.50
2019-05-30T11:33:09.493Z,20.40
2019-05-30T11:35:37.699Z,20.60
2019-05-30T11:38:06.216Z,20.60
2019-05-30T11:40:34.539Z,20.60
2019-05-30T11:43:02.800Z,20.60
2019-05-30T11:45:31.012Z,20.70
2019-05-30T11:48:00.076Z,20.60
2019-05-30T11:50:28.502Z,20.60
2019-05-30T11:52:57.860Z,20.60
2019-05-30T11:55:26.200Z,20.60
2019-05-30T11:57:55.066Z,20.70
2019-05-30T12:00:25.497Z,20.60
2019-05-30T12:02:54.349Z,20.60
2019-05-30T12:05:23.459Z,20.70
2019-05-30T12:07:52.844Z,20.60
2019-05-30T12:10:23.223Z,20.50
2019-05-30T12:12:51.431Z,20.60
2019-05-30T12:15:19.709Z,20.60
2019-05-30T12:17:47.893Z,20.60
2019-05-30T12:20:16.154Z,20.70
2019-05-30T12:22:44.396Z,20.60
2019-05-30T12:25:12.680Z,20.60
2019-05-30T12:27:40.893Z,20.50
2019-05-30T12:30:10.548Z,20.50
2019-05-30T12:32:38.756Z,20.40
2019-05-30T12:35:08.575Z,20.40
2019-05-30T12:37:53.253Z,20.40
2019-05-30T12:40:08.457Z,20.40
2019-05-30T12:42:36.953Z,20.40
2019-05-30T12:45:08.250Z,20.50
2019-05-30T12:47:36.453Z,20.50
2019-05-30T12:50:09.454Z,20.60
2019-05-30T12:52:37.660Z,20.70
2019-05-30T12:55:07.110Z,20.70
2019-05-30T12:57:35.311Z,20.80
2019-05-30T13:00:16.609Z,20.90
2019-05-30T13:02:38.649Z,20.90
2019-05-30T13:05:07.787Z,20.90
2019-05-30T13:07:35.988Z,20.90
2019-05-30T13:10:05.832Z,20.90
2019-05-30T13:12:34.249Z,20.80
2019-05-30T13:15:03.742Z,20.80
2019-05-30T13:17:32.139Z,20.80
2019-05-30T13:20:01.468Z,20.80
2019-05-30T13:22:29.946Z,20.80
2019-05-30T13:24:59.626Z,20.90
2019-05-30T13:27:27.938Z,21.00
2019-05-30T13:29:56.136Z,21.10
2019-05-30T13:32:24.336Z,21.20
2019-05-30T13:34:52.542Z,21.20
2019-05-30T13:37:20.960Z,21.30
2019-05-30T13:39:49.416Z,21.30
2019-05-30T13:42:17.614Z,21.50
2019-05-30T13:44:45.839Z,21.50
2019-05-30T13:47:14.042Z,21.50
2019-05-30T13:49:42.242Z,21.60
2019-05-30T13:52:10.444Z,21.70
2019-05-30T13:54:38.647Z,21.60
2019-05-30T13:57:07.872Z,21.60
2019-05-30T13:59:36.136Z,21.50
2019-05-30T14:02:04.410Z,21.40
2019-05-30T14:04:32.617Z,21.30
2019-05-30T14:07:02.179Z,21.20
2019-05-30T14:09:30.424Z,21.30
2019-05-30T14:11:58.692Z,21.30
2019-05-30T14:14:26.899Z,21.30
2019-05-30T14:16:55.097Z,21.40
2019-05-30T14:19:25.114Z,21.30
2019-05-30T14:21:53.224Z,21.40
2019-05-30T14:24:21.417Z,21.30
2019-05-30T14:26:49.669Z,21.40
2019-05-30T14:29:17.865Z,21.40
2019-05-30T14:31:46.076Z,21.40
2019-05-30T14:34:14.273Z,21.40
2019-05-30T14:36:42.484Z,21.30
2019-05-30T14:39:11.209Z,21.40
2019-05-30T14:41:39.456Z,21.40
2019-05-30T14:44:07.661Z,21.50
2019-05-30T14:46:35.862Z,21.60
2019-05-30T14:49:04.463Z,21.80
2019-05-30T14:51:35.304Z,21.90
2019-05-30T14:54:02.616Z,22.20
2019-05-30T14:56:30.825Z,22.10
2019-05-30T14:58:59.032Z,22.20
2019-05-30T15:01:27.244Z,22.50
2019-05-30T15:03:55.440Z,22.70
2019-05-30T15:06:24.139Z,22.80
2019-05-30T15:08:52.351Z,22.70
2019-05-30T15:11:20.559Z,22.70
2019-05-30T15:13:48.749Z,22.70
2019-05-30T15:16:17.208Z,22.50
2019-05-30T15:18:45.519Z,22.50
2019-05-30T15:21:14.538Z,22.50
2019-05-30T15:23:42.898Z,22.50
2019-05-30T15:26:12.103Z,22.50
2019-05-30T15:28:40.380Z,22.70
2019-05-30T15:31:08.576Z,22.90
2019-05-30T15:33:36.789Z,23.00
2019-05-30T15:36:04.999Z,23.30
2019-05-30T15:38:33.205Z,23.60
2019-05-30T15:41:01.392Z,23.90
2019-05-30T15:43:29.602Z,24.40
2019-05-30T15:45:57.796Z,24.90
2019-05-30T15:48:26.242Z,24.60
2019-05-30T15:50:54.463Z,24.40
2019-05-30T15:53:22.660Z,24.30
2019-05-30T15:55:50.899Z,24.40
2019-05-30T15:58:20.497Z,24.60
2019-05-30T16:00:48.813Z,24.40
2019-05-30T16:03:17.025Z,24.40
2019-05-30T16:05:45.212Z,24.20
2019-05-30T16:08:14.677Z,24.30
2019-05-30T16:10:42.917Z,24.40
2019-05-30T16:13:11.472Z,24.40
2019-05-30T16:15:39.702Z,24.30
2019-05-30T16:18:07.899Z,24.50
2019-05-30T16:20:36.124Z,24.60
2019-05-30T16:23:04.344Z,24.50
2019-05-30T16:25:32.538Z,24.40
2019-05-30T16:28:00.757Z,24.40
2019-05-30T16:30:28.954Z,24.20
2019-05-30T16:32:57.213Z,23.90
2019-05-30T16:35:26.466Z,23.70
2019-05-30T16:37:54.789Z,23.50
2019-05-30T16:40:22.984Z,23.40
2019-05-30T16:42:51.198Z,23.20
2019-05-30T16:45:24.616Z,22.90
2019-05-30T16:47:50.005Z,23.00
2019-05-30T16:50:19.051Z,22.80
2019-05-30T16:52:47.457Z,22.70
2019-05-30T16:55:15.655Z,22.70
2019-05-30T16:57:43.853Z,22.70
2019-05-30T17:00:13.752Z,22.60
2019-05-30T17:02:41.950Z,22.70
2019-05-30T17:05:10.156Z,22.50
2019-05-30T17:07:38.361Z,22.60
2019-05-30T17:10:21.507Z,22.50
2019-05-30T17:12:37.123Z,22.50
2019-05-30T17:15:08.646Z,22.50
2019-05-30T17:17:36.850Z,22.30
2019-05-30T17:20:09.799Z,22.30
2019-05-30T17:22:37.998Z,22.30
2019-05-30T17:25:09.222Z,22.20
2019-05-30T17:27:37.423Z,22.20
2019-05-30T17:30:07.068Z,22.20
2019-05-30T17:32:35.268Z,22.20
2019-05-30T17:35:07.304Z,22.10
2019-05-30T17:37:35.501Z,22.10
2019-05-30T17:40:07.598Z,22.00
2019-05-30T17:42:35.939Z,21.90
2019-05-30T17:45:07.537Z,21.90
2019-05-30T17:47:35.996Z,21.90
2019-05-30T17:50:09.136Z,21.80
2019-05-30T17:52:37.348Z,21.70
2019-05-30T17:55:06.603Z,21.70
2019-05-30T17:57:34.795Z,21.60
2019-05-30T18:00:03.153Z,21.60
2019-05-30T18:02:31.336Z,21.60
2019-05-30T18:04:59.544Z,21.60
2019-05-30T18:07:29.046Z,21.50
2019-05-30T18:09:57.608Z,21.40
2019-05-30T18:12:27.027Z,21.40
2019-05-30T18:14:55.273Z,21.30
2019-05-30T18:17:23.477Z,21.30
2019-05-30T18:19:51.714Z,21.20
2019-05-30T18:22:19.914Z,21.20
2019-05-30T18:24:48.126Z,21.20
2019-05-30T18:27:16.325Z,21.20
2019-05-30T18:29:44.768Z,21.10
2019-05-30T18:32:13.345Z,21.00
2019-05-30T18:34:41.561Z,20.90
2019-05-30T18:37:09.762Z,21.00
2019-05-30T18:39:37.965Z,21.00
2019-05-30T18:42:06.157Z,20.90
2019-05-30T18:44:34.484Z,20.90
2019-05-30T18:47:02.753Z,20.80
2019-05-30T18:49:31.318Z,20.80
2019-05-30T18:51:59.632Z,20.80
2019-05-30T18:54:28.534Z,20.80
2019-05-30T18:56:56.812Z,20.70
2019-05-30T18:59:25.004Z,20.70
2019-05-30T19:01:53.226Z,20.70
2019-05-30T19:04:22.943Z,20.60
2019-05-30T19:06:51.230Z,20.60
2019-05-30T19:09:19.436Z,20.60
2019-05-30T19:11:47.643Z,20.60
2019-05-30T19:14:15.830Z,20.50
2019-05-30T19:16:44.051Z,20.50
2019-05-30T19:19:12.244Z,20.40
2019-05-30T19:21:40.480Z,20.40
2019-05-30T19:24:08.900Z,20.40
2019-05-30T19:26:37.122Z,20.30
2019-05-30T19:29:05.321Z,20.30
2019-05-30T19:31:34.703Z,20.20
2019-05-30T19:34:03.008Z,20.20
2019-05-30T19:36:31.200Z,20.20
2019-05-30T19:38:59.396Z,20.20
2019-05-30T19:41:41.610Z,20.10
2019-05-30T19:43:57.535Z,20.00
2019-05-30T19:46:25.977Z,20.00
2019-05-30T19:48:54.175Z,19.90
2019-05-30T19:51:22.372Z,19.90
2019-05-30T19:53:50.678Z,19.80
2019-05-30T19:56:18.969Z,19.80
2019-05-30T19:58:47.415Z,19.80
2019-05-30T20:01:15.620Z,19.70
2019-05-30T20:03:47.027Z,19.60
2019-05-30T20:06:13.800Z,19.60
2019-05-30T20:08:54.570Z,19.60
2019-05-30T20:11:11.965Z,19.50
2019-05-30T20:13:41.296Z,19.50
2019-05-30T20:16:09.543Z,19.40
2019-05-30T20:18:37.746Z,19.40
2019-05-30T20:21:05.940Z,19.40
2019-05-30T20:23:47.336Z,19.40
2019-05-30T20:26:04.090Z,19.30
2019-05-30T20:28:32.712Z,19.30
2019-05-30T20:31:00.953Z,19.20
2019-05-30T20:33:29.373Z,19.20
2019-05-30T20:35:57.572Z,19.20
2019-05-30T20:38:25.774Z,19.10
2019-05-30T20:40:53.977Z,19.10
2019-05-30T20:43:22.185Z,19.10
2019-05-30T20:45:50.389Z,19.10
2019-05-30T20:48:18.765Z,19.10
2019-05-30T20:50:47.419Z,19.00
2019-05-30T20:53:15.866Z,19.00
2019-05-30T20:55:44.089Z,19.00
2019-05-30T20:58:12.329Z,19.00
2019-05-30T21:00:42.129Z,19.00
2019-05-30T21:03:10.517Z,18.90
2019-05-30T21:05:39.793Z,18.90
2019-05-30T21:08:08.101Z,18.90
2019-05-30T21:10:37.029Z,18.90
2019-05-30T21:13:05.353Z,18.90
2019-05-30T21:15:35.253Z,18.90
2019-05-30T21:18:04.709Z,18.90
2019-05-30T21:20:32.902Z,18.80
2019-05-30T21:23:01.125Z,18.80
2019-05-30T21:25:29.329Z,18.80
2019-05-30T21:27:57.529Z,18.80
2019-05-30T21:30:25.728Z,18.80
2019-05-30T21:32:54.166Z,18.80
2019-05-30T21:35:22.531Z,18.80
2019-05-30T21:37:50.886Z,18.80
2019-05-30T21:40:19.075Z,18.80
2019-05-30T21:43:03.260Z,18.80
2019-05-30T21:45:17.189Z,18.80
2019-05-30T21:47:45.412Z,18.80
2019-05-30T21:50:13.837Z,18.80
2019-05-30T21:52:43.470Z,18.80
2019-05-30T21:55:11.827Z,18.80
2019-05-30T21:57:40.253Z,18.80
2019-05-30T22:00:11.162Z,18.80
2019-05-30T22:02:40.298Z,18.80
2019-05-30T22:05:08.534Z,18.80
2019-05-30T22:07:36.745Z,18.80
2019-05-30T22:10:04.959Z,18.70
2019-05-30T22:12:33.393Z,18.70
2019-05-30T22:15:01.620Z,18.70
2019-05-30T22:17:29.808Z,18.70
2019-05-30T22:19:58.017Z,18.60
2019-05-30T22:22:26.213Z,18.60
2019-05-30T22:24:54.800Z,18.60
2019-05-30T22:27:22.998Z,18.60
2019-05-30T22:29:52.396Z,18.60
2019-05-30T22:32:20.908Z,18.60
2019-05-30T22:34:49.127Z,18.60
2019-05-30T22:37:17.333Z,18.60
2019-05-30T22:39:46.722Z,18.60
2019-05-30T22:42:15.106Z,18.60
2019-05-30T22:44:43.988Z,18.50
2019-05-30T22:47:12.457Z,18.60
2019-05-30T22:49:40.660Z,18.50
2019-05-30T22:52:08.877Z,18.50
2019-05-30T22:54:37.100Z,18.50
2019-05-30T22:57:05.305Z,18.50
2019-05-30T22:59:33.520Z,18.40
2019-05-30T23:02:01.732Z,18.40
2019-05-30T23:04:30.244Z,18.40
2019-05-30T23:06:58.500Z,18.40
2019-05-30T23:09:26.943Z,18.40
2019-05-30T23:11:55.999Z,18.40
2019-05-30T23:14:24.328Z,18.40
2019-05-30T23:16:52.534Z,18.40
2019-05-30T23:19:20.747Z,18.40
2019-05-30T23:21:48.962Z,18.40
2019-05-30T23:24:17.172Z,18.30
2019-05-30T23:26:45.385Z,18.40
2019-05-30T23:29:13.585Z,18.30
2019-05-30T23:31:41.784Z,18.40
2019-05-30T23:34:09.979Z,18.40
2019-05-30T23:36:38.203Z,18.30
2019-05-30T23:39:06.840Z,18.30
2019-05-30T23:41:35.048Z,18.30
2019-05-30T23:44:10.912Z,18.30
2019-05-30T23:46:33.588Z,18.30
2019-05-30T23:49:01.783Z,18.30
2019-05-30T23:51:29.984Z,18.30
2019-05-30T23:53:58.396Z,18.30
2019-05-30T23:56:26.704Z,18.30
2019-05-30T23:58:55.168Z,18.20
